Time;durP1;ratioP1;P1;durP2;ratioP2;P2;SDS_P1;SDS_P2;PMS_P1;PMS_P2;Temp;Humidity;BMP_temperature;BMP_pressure;BME280_temperature;BME280_humidity;BME280_pressure;Samples;Min_cycle;Max_cycle;Signal;HPM_P1;HPM_P2
2020/12/13 00:00:50;;;;;;;4.23;2.10;;;7.30;99.90;;;;;;5044430;28;20621;-64
2020/12/13 00:03:16;;;;;;;1.70;0.20;;;7.30;99.90;;;;;;5046025;28;20178;-64
2020/12/13 00:05:43;;;;;;;1.70;0.20;;;7.30;99.90;;;;;;5044752;28;20516;-64
2020/12/13 00:08:09;;;;;;;1.73;0.20;;;7.30;99.90;;;;;;5047349;28;20452;-64
2020/12/13 00:10:35;;;;;;;1.80;0.40;;;7.40;99.90;;;;;;5037633;28;20445;-64
2020/12/13 00:13:00;;;;;;;1.80;0.20;;;7.30;99.90;;;;;;5040422;28;20483;-64
2020/12/13 00:15:26;;;;;;;1.90;0.60;;;7.30;99.90;;;;;;5034923;28;20202;-64
2020/12/13 00:17:52;;;;;;;1.70;0.20;;;7.40;99.90;;;;;;5044715;28;20805;-64
2020/12/13 00:20:18;;;;;;;1.90;0.40;;;7.40;99.90;;;;;;5043787;28;20544;-64
2020/12/13 00:22:45;;;;;;;1.80;0.53;;;7.40;99.90;;;;;;5047162;28;20234;-64
2020/12/13 00:25:11;;;;;;;1.80;0.20;;;7.50;99.90;;;;;;5041436;28;20436;-64
2020/12/13 00:27:38;;;;;;;1.70;0.20;;;7.50;99.90;;;;;;5030651;28;20460;-63
2020/12/13 00:30:05;;;;;;;1.70;0.20;;;7.50;99.90;;;;;;5031560;28;20436;-63
2020/12/13 00:32:31;;;;;;;1.90;0.60;;;7.50;99.90;;;;;;5025509;28;20456;-63
2020/12/13 00:34:58;;;;;;;1.70;0.20;;;7.50;99.90;;;;;;5029847;28;20837;-64
2020/12/13 00:37:24;;;;;;;1.80;0.40;;;7.50;99.90;;;;;;5024290;28;20540;-63
2020/12/13 00:39:50;;;;;;;1.73;0.20;;;7.50;99.90;;;;;;5023108;28;20441;-64
2020/12/13 00:42:16;;;;;;;2.40;0.67;;;7.50;99.90;;;;;;5026874;28;20432;-63
2020/12/13 00:44:43;;;;;;;1.70;0.20;;;7.50;99.90;;;;;;5030293;28;20186;-63
2020/12/13 00:47:09;;;;;;;1.70;0.20;;;7.50;99.90;;;;;;5028433;28;20865;-62
2020/12/13 00:49:35;;;;;;;2.70;2.43;;;7.50;99.90;;;;;;5031655;28;20452;-63
2020/12/13 00:52:05;;;;;;;1.70;0.20;;;7.60;99.90;;;;;;5028741;28;20190;-63
2020/12/13 00:54:31;;;;;;;2.33;1.70;;;7.60;99.90;;;;;;5029823;28;20464;-63
2020/12/13 00:56:56;;;;;;;1.70;0.20;;;7.60;99.90;;;;;;5031902;28;20525;-63
2020/12/13 00:59:22;;;;;;;3.33;3.03;;;7.60;99.90;;;;;;5025520;28;20178;-64
2020/12/13 01:01:48;;;;;;;1.70;0.20;;;7.60;99.90;;;;;;5029986;28;20205;-64
2020/12/13 01:04:14;;;;;;;3.63;1.93;;;7.60;99.90;;;;;;5016190;28;20574;-63
2020/12/13 01:06:40;;;;;;;1.70;0.20;;;7.60;99.90;;;;;;5026605;28;20448;-63
2020/12/13 01:09:06;;;;;;;3.93;2.40;;;7.60;99.90;;;;;;5023879;28;20437;-63
2020/12/13 01:11:33;;;;;;;1.70;0.20;;;7.40;99.90;;;;;;5030556;28;20186;-63
2020/12/13 01:14:01;;;;;;;1.73;0.20;;;7.30;99.90;;;;;;5030149;28;20449;-64
2020/12/13 01:16:27;;;;;;;1.70;0.20;;;7.40;99.90;;;;;;5031335;28;20455;-63
2020/12/13 01:18:54;;;;;;;2.43;1.80;;;7.40;99.90;;;;;;5030776;28;20444;-63
2020/12/13 01:21:22;;;;;;;1.70;0.20;;;7.40;99.90;;;;;;5030232;28;20524;-63
2020/12/13 01:23:49;;;;;;;1.73;0.20;;;7.30;99.90;;;;;;5019610;28;20491;-64
2020/12/13 01:26:16;;;;;;;1.70;0.20;;;7.40;99.90;;;;;;5032423;28;20942;-64
2020/12/13 01:28:43;;;;;;;4.73;1.43;;;7.40;99.90;;;;;;5035616;28;20947;-64
2020/12/13 01:31:12;;;;;;;9.43;6.07;;;7.40;99.90;;;;;;5025729;28;20536;-64
2020/12/13 01:33:37;;;;;;;1.70;0.20;;;7.40;99.90;;;;;;5027113;28;20789;-63
2020/12/13 01:36:03;;;;;;;1.83;0.50;;;7.30;99.90;;;;;;5026293;28;20472;-63
2020/12/13 01:38:29;;;;;;;1.70;0.20;;;7.40;99.90;;;;;;5019873;28;20210;-64
2020/12/13 01:40:59;;;;;;;1.70;0.20;;;7.40;99.90;;;;;;5049148;28;20203;-64
2020/12/13 01:43:25;;;;;;;1.80;0.20;;;7.50;99.90;;;;;;5031937;28;20436;-64
2020/12/13 01:45:51;;;;;;;2.40;0.80;;;7.50;99.90;;;;;;5034060;28;20436;-64
2020/12/13 01:48:18;;;;;;;2.00;0.60;;;7.50;99.90;;;;;;5033582;28;20465;-64
2020/12/13 01:50:52;;;;;;;27.47;8.47;;;7.40;99.90;;;;;;5031969;28;20452;-64
2020/12/13 01:53:24;;;;;;;1.77;0.20;;;7.40;99.90;;;;;;5028871;28;20471;-63
2020/12/13 01:55:51;;;;;;;1.80;0.60;;;7.40;99.90;;;;;;5028741;28;20468;-64
2020/12/13 01:58:24;;;;;;;12.53;9.07;;;7.40;99.90;;;;;;5027328;28;20456;-64
2020/12/13 02:00:53;;;;;;;4.90;3.80;;;7.40;99.90;;;;;;5027972;28;20437;-63
2020/12/13 02:03:23;;;;;;;1.70;0.20;;;7.30;99.90;;;;;;5027382;28;20442;-64
2020/12/13 02:06:06;;;;;;;1.70;0.20;;;7.30;99.90;;;;;;5034293;28;20950;-63
2020/12/13 02:08:40;;;;;;;2.30;1.27;;;7.40;99.90;;;;;;5022592;28;20457;-63
2020/12/13 02:11:07;;;;;;;1.90;0.70;;;7.40;99.90;;;;;;5030109;28;20440;-64
2020/12/13 02:13:33;;;;;;;2.90;2.60;;;7.40;99.90;;;;;;5032166;28;20540;-63
2020/12/13 02:15:59;;;;;;;1.70;0.20;;;7.40;99.90;;;;;;5034761;28;20499;-64
2020/12/13 02:18:27;;;;;;;2.00;1.00;;;7.50;99.90;;;;;;5030483;28;20498;-63
2020/12/13 02:20:53;;;;;;;1.70;0.20;;;7.50;99.90;;;;;;5042377;28;20438;-64
2020/12/13 02:23:19;;;;;;;3.17;2.73;;;7.50;99.90;;;;;;5049799;28;20519;-64
2020/12/13 02:25:44;;;;;;;41.70;10.70;;;7.50;99.90;;;;;;5053354;28;20190;-65
2020/12/13 02:28:10;;;;;;;1.70;0.20;;;7.50;99.90;;;;;;5052749;28;20464;-65
2020/12/13 02:30:36;;;;;;;4.07;1.30;;;7.60;99.90;;;;;;5053143;28;20680;-64
2020/12/13 02:33:02;;;;;;;1.80;0.30;;;7.60;99.90;;;;;;5050952;28;20205;-64
2020/12/13 02:35:27;;;;;;;1.87;0.40;;;7.60;99.90;;;;;;5053408;28;20209;-65
2020/12/13 02:37:53;;;;;;;2.33;1.60;;;7.60;99.90;;;;;;5046861;28;20233;-64
2020/12/13 02:40:20;;;;;;;1.80;0.20;;;7.60;99.90;;;;;;5052835;28;20181;-65
2020/12/13 02:42:46;;;;;;;3.60;2.43;;;7.60;99.90;;;;;;5052731;28;20174;-64
2020/12/13 02:45:12;;;;;;;1.80;0.20;;;7.60;99.90;;;;;;5052276;28;20432;-64
2020/12/13 02:47:38;;;;;;;2.47;1.70;;;7.60;99.90;;;;;;5049980;28;20838;-64
2020/12/13 02:50:03;;;;;;;1.73;0.20;;;7.60;99.90;;;;;;5053264;28;20209;-65
2020/12/13 02:52:29;;;;;;;2.93;2.37;;;7.60;99.90;;;;;;5052009;28;20217;-66
2020/12/13 02:54:55;;;;;;;1.80;0.50;;;7.60;99.90;;;;;;5054994;28;20468;-65
2020/12/13 02:57:21;;;;;;;10.63;5.70;;;7.60;99.90;;;;;;5052801;28;20193;-66
2020/12/13 02:59:47;;;;;;;1.80;0.20;;;7.60;99.90;;;;;;5044430;28;20198;-65
2020/12/13 03:02:13;;;;;;;1.80;0.20;;;7.60;99.90;;;;;;5035388;28;20446;-62
2020/12/13 03:04:38;;;;;;;3.30;2.33;;;7.60;99.90;;;;;;5032385;28;20445;-64
2020/12/13 03:07:04;;;;;;;6.70;4.77;;;7.60;99.90;;;;;;5025579;28;20647;-65
2020/12/13 03:09:30;;;;;;;1.77;0.20;;;7.60;99.90;;;;;;5030579;28;20195;-66
2020/12/13 03:11:55;;;;;;;2.33;1.70;;;7.60;99.90;;;;;;5032144;28;20213;-65
2020/12/13 03:14:22;;;;;;;1.70;0.20;;;7.60;99.90;;;;;;5027359;28;20215;-65
2020/12/13 03:16:48;;;;;;;2.40;1.23;;;7.70;99.90;;;;;;5039446;28;20233;-64
2020/12/13 03:19:14;;;;;;;1.80;0.20;;;7.70;99.90;;;;;;5053321;28;20456;-65
2020/12/13 03:21:39;;;;;;;1.90;0.60;;;7.70;99.90;;;;;;5041586;28;20212;-66
2020/12/13 03:24:05;;;;;;;1.80;0.20;;;7.80;99.90;;;;;;5051063;28;20173;-65
2020/12/13 03:26:31;;;;;;;1.70;0.20;;;7.80;99.90;;;;;;5050105;28;20212;-66
2020/12/13 03:28:56;;;;;;;1.77;0.33;;;7.80;99.90;;;;;;5050047;28;20190;-65
2020/12/13 03:31:21;;;;;;;1.70;0.20;;;7.80;99.90;;;;;;5049216;28;20186;-65
2020/12/13 03:33:47;;;;;;;1.80;0.20;;;7.80;99.90;;;;;;5041760;28;20190;-65
2020/12/13 03:36:13;;;;;;;1.80;0.30;;;7.80;99.90;;;;;;5044744;28;20260;-65
2020/12/13 03:38:39;;;;;;;2.23;1.80;;;7.80;99.90;;;;;;5052121;28;20212;-65
2020/12/13 03:41:05;;;;;;;1.80;0.30;;;7.80;99.90;;;;;;5051485;28;20425;-65
2020/12/13 03:43:30;;;;;;;5.93;2.20;;;7.80;99.90;;;;;;5046870;28;20281;-65
2020/12/13 03:45:56;;;;;;;2.47;1.13;;;7.70;99.90;;;;;;5048898;28;20253;-65
2020/12/13 03:48:21;;;;;;;5.20;2.47;;;7.80;99.90;;;;;;5040065;28;20242;-64
2020/12/13 03:50:47;;;;;;;1.70;0.20;;;7.70;99.90;;;;;;5038866;28;20191;-64
2020/12/13 03:53:14;;;;;;;4.03;1.90;;;7.70;99.90;;;;;;5038382;28;20213;-65
2020/12/13 03:55:41;;;;;;;1.70;0.27;;;7.80;99.90;;;;;;5034234;28;20213;-65
2020/12/13 03:58:07;;;;;;;1.80;0.60;;;7.70;99.90;;;;;;5037914;28;20804;-65
2020/12/13 04:00:33;;;;;;;12.40;7.70;;;7.70;99.90;;;;;;5042176;28;20443;-66
2020/12/13 04:03:00;;;;;;;1.70;0.20;;;7.70;99.90;;;;;;5041492;28;20475;-65
2020/12/13 04:05:26;;;;;;;2.80;2.13;;;7.80;99.90;;;;;;5036681;28;20510;-65
2020/12/13 04:07:52;;;;;;;2.33;0.63;;;7.80;99.90;;;;;;5038166;28;20457;-64
2020/12/13 04:10:18;;;;;;;1.80;0.30;;;7.80;99.90;;;;;;5037867;28;20849;-65
2020/12/13 04:12:44;;;;;;;1.70;0.20;;;7.90;99.90;;;;;;5036107;28;20935;-65
2020/12/13 04:15:10;;;;;;;2.10;1.13;;;7.90;99.90;;;;;;5035575;28;20495;-64
2020/12/13 04:17:35;;;;;;;7.30;3.90;;;7.80;99.90;;;;;;5031682;28;20475;-64
2020/12/13 04:20:01;;;;;;;1.80;0.50;;;7.80;99.90;;;;;;5021654;28;20178;-64
2020/12/13 04:22:27;;;;;;;1.70;0.20;;;7.80;99.90;;;;;;5024803;28;20689;-65
2020/12/13 04:24:52;;;;;;;10.33;5.50;;;7.80;99.90;;;;;;5027791;28;20472;-65
2020/12/13 04:27:18;;;;;;;10.30;3.60;;;7.80;99.90;;;;;;5032684;28;20206;-65
2020/12/13 04:29:43;;;;;;;3.77;2.43;;;7.70;99.90;;;;;;5031359;28;20196;-65
2020/12/13 04:32:10;;;;;;;2.10;1.30;;;7.70;99.90;;;;;;5028608;28;20548;-64
2020/12/13 04:34:36;;;;;;;1.90;0.67;;;7.70;99.90;;;;;;5030302;28;20279;-64
2020/12/13 04:37:01;;;;;;;2.67;0.50;;;7.70;99.90;;;;;;5030679;28;20986;-64
2020/12/13 04:39:27;;;;;;;1.70;0.20;;;7.80;99.90;;;;;;5032547;28;21038;-64
2020/12/13 04:41:52;;;;;;;4.93;2.23;;;7.80;99.90;;;;;;5028186;28;20257;-64
2020/12/13 04:44:19;;;;;;;9.93;4.53;;;7.80;99.90;;;;;;5030403;28;20189;-64
2020/12/13 04:46:46;;;;;;;1.70;0.20;;;7.80;99.90;;;;;;5021647;28;20193;-64
2020/12/13 04:49:12;;;;;;;1.70;0.20;;;7.70;99.90;;;;;;5019205;28;20433;-65
2020/12/13 04:51:40;;;;;;;2.47;0.63;;;7.80;99.90;;;;;;5030943;28;20935;-64
2020/12/13 04:54:06;;;;;;;1.80;0.53;;;7.70;99.90;;;;;;5025694;28;20475;-64
2020/12/13 04:56:34;;;;;;;1.70;0.30;;;7.80;99.90;;;;;;5022922;28;20437;-64
2020/12/13 04:59:05;;;;;;;8.47;6.27;;;7.80;99.90;;;;;;5029149;28;20207;-64
2020/12/13 05:01:31;;;;;;;1.70;0.20;;;7.80;99.90;;;;;;5030879;28;20447;-64
2020/12/13 05:03:57;;;;;;;3.70;2.30;;;7.70;99.90;;;;;;5033972;28;20433;-64
2020/12/13 05:06:24;;;;;;;1.70;0.20;;;7.70;99.90;;;;;;5039720;28;20193;-64
2020/12/13 05:08:51;;;;;;;1.70;0.20;;;7.80;99.90;;;;;;5041139;28;20526;-64
2020/12/13 05:11:16;;;;;;;4.53;1.30;;;7.80;99.90;;;;;;5034971;28;20445;-64
2020/12/13 05:13:42;;;;;;;1.70;0.20;;;7.80;99.90;;;;;;5036817;28;20436;-64
2020/12/13 05:16:09;;;;;;;5.70;3.23;;;7.80;99.90;;;;;;5025260;28;20205;-64
2020/12/13 05:18:39;;;;;;;1.70;0.20;;;7.80;99.90;;;;;;5034274;28;20209;-64
2020/12/13 05:21:05;;;;;;;3.80;2.53;;;7.80;99.90;;;;;;5033377;28;20959;-64
2020/12/13 05:23:32;;;;;;;2.53;0.77;;;7.80;99.90;;;;;;5036734;28;20428;-64
2020/12/13 05:25:57;;;;;;;5.50;2.00;;;7.80;99.90;;;;;;5036623;28;20433;-64
2020/12/13 05:28:24;;;;;;;3.77;2.73;;;7.80;99.90;;;;;;5034803;28;20968;-64
2020/12/13 05:30:50;;;;;;;1.80;0.20;;;7.80;99.90;;;;;;5026012;28;20182;-64
2020/12/13 05:33:34;;;;;;;2.40;0.80;;;7.90;99.90;;;;;;5037133;28;20452;-65
2020/12/13 05:36:01;;;;;;;1.70;0.20;;;7.90;99.90;;;;;;5038514;28;20808;-64
2020/12/13 05:38:38;;;;;;;3.70;2.10;;;7.90;99.90;;;;;;5028959;28;20522;-64
2020/12/13 05:41:05;;;;;;;7.77;3.93;;;7.90;99.90;;;;;;5036361;28;20440;-63
2020/12/13 05:43:35;;;;;;;1.90;0.60;;;7.90;99.90;;;;;;5037431;28;20433;-64
2020/12/13 05:46:34;;;;;;;3.17;1.17;;;7.90;99.90;;;;;;5036898;28;20428;-64
2020/12/13 05:51:39;;;;;;;4.87;2.77;;;7.90;99.90;;;;;;5032727;28;20483;-64
2020/12/13 05:54:09;;;;;;;12.90;5.43;;;7.80;99.90;;;;;;5023602;28;20989;-64
2020/12/13 05:56:36;;;;;;;4.30;1.00;;;7.80;99.90;;;;;;5036731;28;20470;-64
2020/12/13 05:59:02;;;;;;;1.70;0.20;;;7.80;99.90;;;;;;5035651;28;20428;-64
2020/12/13 06:01:29;;;;;;;1.70;0.20;;;7.90;99.90;;;;;;5023861;28;20441;-63
2020/12/13 06:03:55;;;;;;;6.53;2.87;;;7.90;99.90;;;;;;5037577;28;20436;-64
2020/12/13 06:06:25;;;;;;;2.67;1.80;;;7.90;99.90;;;;;;5053823;28;20459;-64
2020/12/13 06:09:36;;;;;;;8.67;5.47;;;7.90;99.90;;;;;;5052927;28;20210;-65
2020/12/13 06:12:14;;;;;;;7.53;4.23;;;7.90;99.90;;;;;;4978494;28;20442;-64
2020/12/13 06:14:44;;;;;;;2.33;0.90;;;7.90;99.90;;;;;;5030295;28;21043;-64
2020/12/13 06:17:09;;;;;;;2.50;2.30;;;7.80;99.90;;;;;;5025087;28;20819;-64
2020/12/13 06:19:37;;;;;;;2.20;1.17;;;7.90;99.90;;;;;;5034165;28;20439;-64
2020/12/13 06:22:04;;;;;;;12.20;8.03;;;7.90;99.90;;;;;;5025477;28;20197;-64
2020/12/13 06:24:30;;;;;;;1.70;0.20;;;7.90;99.90;;;;;;5024261;28;20947;-64
2020/12/13 06:26:57;;;;;;;11.30;7.20;;;7.90;99.90;;;;;;5032682;28;20496;-64
2020/12/13 06:29:24;;;;;;;1.70;0.27;;;7.90;99.90;;;;;;5032344;28;20958;-64
2020/12/13 06:31:51;;;;;;;4.17;1.70;;;7.90;99.90;;;;;;5033756;28;20982;-64
2020/12/13 06:34:17;;;;;;;9.00;8.50;;;8.00;99.90;;;;;;5023457;28;20513;-64
2020/12/13 06:36:44;;;;;;;7.60;4.90;;;7.90;99.90;;;;;;5027746;28;20531;-63
2020/12/13 06:39:17;;;;;;;1.70;0.20;;;8.00;99.90;;;;;;5033004;28;20190;-64
2020/12/13 06:41:48;;;;;;;2.10;1.07;;;7.90;99.90;;;;;;5031822;28;20436;-64
2020/12/13 06:44:14;;;;;;;2.00;0.83;;;7.90;99.90;;;;;;5032572;28;20452;-64
2020/12/13 06:46:43;;;;;;;1.70;0.20;;;7.90;99.90;;;;;;5032793;28;20440;-64
2020/12/13 06:49:13;;;;;;;1.70;0.20;;;7.90;99.90;;;;;;5031872;28;20432;-64
2020/12/13 06:51:40;;;;;;;1.93;0.70;;;8.00;99.90;;;;;;5030734;28;20448;-64
2020/12/13 06:54:08;;;;;;;10.50;6.70;;;8.00;99.90;;;;;;5032719;28;20515;-64
2020/12/13 06:56:34;;;;;;;3.60;2.33;;;8.00;99.90;;;;;;5021601;28;20782;-64
2020/12/13 06:59:02;;;;;;;7.27;5.10;;;7.90;99.90;;;;;;5028496;28;20435;-65
2020/12/13 07:01:38;;;;;;;1.90;0.20;;;7.90;99.90;;;;;;5024011;28;20448;-63
2020/12/13 07:04:30;;;;;;;6.27;2.70;;;7.90;99.90;;;;;;5031215;28;20428;-64
2020/12/13 07:06:59;;;;;;;6.40;4.23;;;7.90;99.90;;;;;;5026271;28;20452;-64
2020/12/13 07:09:26;;;;;;;7.17;4.70;;;7.90;99.90;;;;;;5031819;28;20437;-64
2020/12/13 07:11:53;;;;;;;6.93;3.30;;;7.90;99.90;;;;;;5031214;28;20451;-64
2020/12/13 07:14:21;;;;;;;3.70;2.03;;;7.90;99.90;;;;;;5032106;28;20436;-64
2020/12/13 07:16:57;;;;;;;6.73;3.80;;;7.80;99.90;;;;;;5031797;28;20524;-64
2020/12/13 07:19:26;;;;;;;9.90;7.00;;;7.80;99.90;;;;;;5032059;28;20468;-64
2020/12/13 07:22:13;;;;;;;1.70;0.20;;;7.80;99.90;;;;;;5028535;28;20449;-63
2020/12/13 07:24:40;;;;;;;5.57;4.07;;;7.80;99.90;;;;;;5029971;28;20547;-63
2020/12/13 07:27:06;;;;;;;8.33;5.30;;;7.70;99.90;;;;;;5026319;28;20824;-63
2020/12/13 07:29:32;;;;;;;12.57;6.80;;;7.70;99.90;;;;;;5029143;28;20435;-63
2020/12/13 07:31:59;;;;;;;1.70;0.20;;;7.70;99.90;;;;;;5029472;28;20443;-63
2020/12/13 07:34:25;;;;;;;2.50;0.80;;;7.70;99.90;;;;;;5030693;28;20472;-64
2020/12/13 07:36:51;;;;;;;1.77;0.40;;;7.70;99.90;;;;;;5026380;28;21248;-63
2020/12/13 07:39:16;;;;;;;4.43;3.93;;;7.70;99.90;;;;;;5028115;28;20178;-63
2020/12/13 07:41:43;;;;;;;1.70;0.20;;;7.70;99.90;;;;;;5028779;28;20519;-63
2020/12/13 07:44:11;;;;;;;4.33;1.77;;;7.70;99.90;;;;;;5031914;28;20248;-64
2020/12/13 07:46:38;;;;;;;1.90;0.30;;;7.70;99.90;;;;;;5022221;28;20436;-63
2020/12/13 07:49:03;;;;;;;2.83;1.70;;;7.70;99.90;;;;;;5026491;28;20449;-64
2020/12/13 07:51:30;;;;;;;1.70;0.20;;;7.70;99.90;;;;;;5017576;28;20441;-64
2020/12/13 07:53:55;;;;;;;5.97;4.57;;;7.70;99.90;;;;;;5031822;28;20736;-64
2020/12/13 07:56:25;;;;;;;2.30;1.37;;;7.70;99.90;;;;;;5029689;28;20555;-64
2020/12/13 07:59:05;;;;;;;42.50;19.00;;;7.70;99.90;;;;;;5030923;28;20228;-64
2020/12/13 08:01:31;;;;;;;2.27;0.73;;;7.70;99.90;;;;;;5029988;28;20448;-64
2020/12/13 08:03:56;;;;;;;8.43;4.23;;;7.80;99.90;;;;;;5024666;28;20476;-64
2020/12/13 08:06:22;;;;;;;2.10;0.87;;;7.80;99.90;;;;;;5030923;28;20190;-64
2020/12/13 08:08:48;;;;;;;1.70;0.20;;;7.70;99.90;;;;;;5024196;28;20931;-64
2020/12/13 08:11:14;;;;;;;5.20;2.10;;;7.80;99.90;;;;;;5031113;28;20544;-64
2020/12/13 08:13:53;;;;;;;2.23;1.90;;;7.80;99.90;;;;;;5029069;28;20194;-64
2020/12/13 08:16:19;;;;;;;3.67;1.83;;;7.70;99.90;;;;;;5030441;28;20563;-62
2020/12/13 08:18:47;;;;;;;2.17;1.07;;;7.80;99.90;;;;;;5029925;28;20543;-62
2020/12/13 08:21:17;;;;;;;2.20;0.40;;;7.80;99.90;;;;;;5030548;28;20843;-62
2020/12/13 08:23:47;;;;;;;1.70;0.20;;;7.80;99.90;;;;;;5030711;28;20444;-62
2020/12/13 08:26:13;;;;;;;3.63;0.77;;;7.80;99.90;;;;;;5031126;28;20958;-62
2020/12/13 08:28:40;;;;;;;3.00;1.73;;;7.80;99.90;;;;;;5020695;28;20491;-63
2020/12/13 08:31:11;;;;;;;1.80;0.57;;;7.80;99.90;;;;;;5026522;28;20476;-62
2020/12/13 08:33:37;;;;;;;2.87;1.23;;;7.90;99.90;;;;;;5028896;28;20803;-62
2020/12/13 08:36:16;;;;;;;3.13;1.53;;;7.90;99.90;;;;;;5031422;28;20464;-61
2020/12/13 08:38:42;;;;;;;1.70;0.20;;;7.90;99.90;;;;;;5022832;28;21131;-61
2020/12/13 08:41:07;;;;;;;3.00;1.67;;;7.90;99.90;;;;;;5025930;28;20570;-64
2020/12/13 08:43:35;;;;;;;1.70;0.20;;;7.90;99.90;;;;;;5031485;28;20209;-62
2020/12/13 08:46:01;;;;;;;1.70;0.20;;;7.90;99.90;;;;;;5029678;28;20181;-62
2020/12/13 08:48:27;;;;;;;2.30;0.40;;;7.90;99.90;;;;;;5025059;28;20453;-64
2020/12/13 08:51:10;;;;;;;1.90;0.40;;;8.00;99.90;;;;;;5021199;28;20186;-61
2020/12/13 08:53:36;;;;;;;3.83;1.23;;;7.90;99.90;;;;;;5029016;28;20424;-63
2020/12/13 08:56:17;;;;;;;13.67;7.50;;;8.00;99.90;;;;;;5029900;28;20472;-62
2020/12/13 08:58:50;;;;;;;1.80;0.40;;;7.90;99.90;;;;;;5028368;28;20209;-63
2020/12/13 09:01:16;;;;;;;1.70;0.20;;;8.00;99.90;;;;;;5029802;28;20448;-62
2020/12/13 09:03:42;;;;;;;7.83;5.67;;;8.00;99.90;;;;;;5028508;28;20811;-62
2020/12/13 09:06:07;;;;;;;1.97;0.67;;;8.00;99.90;;;;;;5027513;28;20556;-62
2020/12/13 09:08:33;;;;;;;1.70;0.20;;;8.00;99.90;;;;;;5032855;28;20210;-62
2020/12/13 09:11:04;;;;;;;1.80;0.60;;;8.00;99.90;;;;;;5026898;28;20205;-62
2020/12/13 09:13:31;;;;;;;1.90;0.40;;;8.00;99.90;;;;;;5029187;28;20193;-62
2020/12/13 09:15:57;;;;;;;4.73;2.87;;;8.00;99.90;;;;;;5028694;28;20823;-62
2020/12/13 09:18:22;;;;;;;1.70;0.20;;;8.00;99.90;;;;;;5029237;28;20468;-61
2020/12/13 09:20:57;;;;;;;1.70;0.20;;;8.00;99.90;;;;;;5031281;28;20183;-61
2020/12/13 09:23:23;;;;;;;1.70;0.20;;;8.00;99.90;;;;;;5033938;28;20197;-62
2020/12/13 09:25:51;;;;;;;1.70;0.20;;;8.10;99.90;;;;;;5031761;28;20522;-61
2020/12/13 09:28:17;;;;;;;1.70;0.30;;;8.10;99.90;;;;;;5021724;28;20473;-62
2020/12/13 09:30:43;;;;;;;1.90;0.50;;;8.10;99.90;;;;;;5032996;28;20444;-62
2020/12/13 09:33:10;;;;;;;1.70;0.20;;;8.10;99.90;;;;;;5028795;28;20679;-63
2020/12/13 09:35:35;;;;;;;1.70;0.20;;;8.00;99.90;;;;;;5030193;28;20473;-62
2020/12/13 09:38:06;;;;;;;1.90;0.60;;;8.10;99.90;;;;;;5027371;28;20458;-62
2020/12/13 09:40:32;;;;;;;4.13;2.23;;;8.10;99.90;;;;;;5028570;28;20185;-62
2020/12/13 09:42:59;;;;;;;7.40;5.60;;;8.00;99.90;;;;;;5027004;28;20444;-64
2020/12/13 09:45:25;;;;;;;3.40;2.10;;;8.00;99.90;;;;;;5032380;28;20440;-62
2020/12/13 09:47:56;;;;;;;2.93;1.63;;;8.00;99.90;;;;;;5021822;28;20948;-61
2020/12/13 09:50:22;;;;;;;7.63;4.23;;;8.00;99.90;;;;;;5032695;28;20467;-63
2020/12/13 09:52:48;;;;;;;1.70;0.20;;;8.10;99.90;;;;;;5038049;28;20480;-63
2020/12/13 09:55:13;;;;;;;2.37;0.80;;;8.10;99.90;;;;;;5032476;28;20469;-62
2020/12/13 09:57:39;;;;;;;2.53;0.50;;;8.10;99.90;;;;;;5037053;28;20269;-62
2020/12/13 10:00:06;;;;;;;1.70;0.20;;;8.20;99.90;;;;;;5034521;28;20229;-62
2020/12/13 10:02:31;;;;;;;5.50;1.90;;;8.30;99.90;;;;;;5035586;28;20190;-62
2020/12/13 10:04:57;;;;;;;8.60;5.13;;;8.30;99.90;;;;;;5031677;28;20466;-62
2020/12/13 10:08:54;;;;;;;1.90;0.50;;;8.30;99.90;;;;;;5022333;28;20214;-63
2020/12/13 10:10:14;;;;;;;1.70;0.20;;;8.30;99.90;;;;;;5024479;28;20187;-61
2020/12/13 10:12:40;;;;;;;1.70;0.20;;;8.30;99.90;;;;;;5029053;28;20437;-61
2020/12/13 10:15:05;;;;;;;2.57;2.20;;;8.40;99.90;;;;;;5020480;28;20477;-61
2020/12/13 10:17:31;;;;;;;3.23;1.63;;;8.40;99.90;;;;;;5028822;28;20213;-61
2020/12/13 10:19:56;;;;;;;1.70;0.20;;;8.40;99.90;;;;;;5024316;28;20189;-61
2020/12/13 10:22:22;;;;;;;5.70;3.47;;;8.40;99.90;;;;;;5026872;28;20183;-60
2020/12/13 10:24:48;;;;;;;2.43;0.80;;;8.50;99.90;;;;;;5027009;28;20268;-62
2020/12/13 10:27:13;;;;;;;1.97;0.57;;;8.50;99.90;;;;;;5022589;28;20222;-61
2020/12/13 10:29:38;;;;;;;7.77;1.37;;;8.40;99.90;;;;;;5034676;28;20680;-61
2020/12/13 10:32:04;;;;;;;1.70;0.20;;;8.50;99.90;;;;;;5032216;28;20201;-61
2020/12/13 10:34:29;;;;;;;5.07;3.03;;;8.50;99.90;;;;;;5033134;28;20190;-63
2020/12/13 10:36:55;;;;;;;3.30;2.00;;;8.50;99.90;;;;;;5031931;28;20206;-63
2020/12/13 10:39:22;;;;;;;4.63;2.70;;;8.50;99.90;;;;;;5030133;28;20202;-62
2020/12/13 10:41:50;;;;;;;7.33;4.93;;;8.50;99.90;;;;;;5031499;28;20385;-61
2020/12/13 10:44:19;;;;;;;1.70;0.20;;;8.50;99.90;;;;;;5028042;28;20451;-62
2020/12/13 10:46:45;;;;;;;2.17;0.93;;;8.50;99.90;;;;;;5027496;28;20448;-61
2020/12/13 10:49:10;;;;;;;1.90;0.53;;;8.50;99.90;;;;;;5032276;28;20445;-61
2020/12/13 10:51:36;;;;;;;4.83;3.10;;;8.40;99.90;;;;;;5033110;28;20452;-61
2020/12/13 10:54:01;;;;;;;1.80;0.30;;;8.50;99.90;;;;;;5033646;28;20190;-62
2020/12/13 10:56:26;;;;;;;2.90;1.17;;;8.50;99.90;;;;;;5031491;28;20754;-62
2020/12/13 10:58:52;;;;;;;7.83;4.27;;;8.50;99.90;;;;;;5022935;28;20198;-62
2020/12/13 11:01:17;;;;;;;1.90;0.53;;;8.50;99.90;;;;;;5032914;28;20217;-61
2020/12/13 11:03:43;;;;;;;2.63;1.43;;;8.50;99.90;;;;;;5031540;28;20225;-62
2020/12/13 11:06:09;;;;;;;6.53;2.47;;;8.50;99.90;;;;;;5018970;28;20190;-61
2020/12/13 11:08:35;;;;;;;1.70;0.20;;;8.50;99.90;;;;;;5034481;28;20206;-62
2020/12/13 11:11:01;;;;;;;1.70;0.20;;;8.50;99.90;;;;;;5031396;28;20441;-61
2020/12/13 11:13:26;;;;;;;5.00;2.40;;;8.60;99.90;;;;;;5031674;28;20268;-61
2020/12/13 11:15:52;;;;;;;7.13;2.77;;;8.50;99.90;;;;;;5030875;28;20595;-61
2020/12/13 11:18:19;;;;;;;2.33;1.30;;;8.50;99.90;;;;;;5022585;28;20240;-61
2020/12/13 11:20:44;;;;;;;5.10;2.43;;;8.50;99.90;;;;;;5033719;28;20672;-61
2020/12/13 11:23:10;;;;;;;8.60;5.30;;;8.50;99.90;;;;;;5030145;28;20527;-62
2020/12/13 11:25:35;;;;;;;1.70;0.20;;;8.50;99.90;;;;;;5022316;28;20187;-61
2020/12/13 11:28:02;;;;;;;3.70;2.10;;;8.50;99.90;;;;;;5025325;28;20228;-61
2020/12/13 11:30:28;;;;;;;1.70;0.20;;;8.60;99.90;;;;;;5021149;28;20189;-63
2020/12/13 11:32:54;;;;;;;1.70;0.20;;;8.50;99.90;;;;;;5029271;28;21180;-61
2020/12/13 11:35:19;;;;;;;1.70;0.20;;;8.50;99.90;;;;;;5031304;28;20213;-61
2020/12/13 11:37:45;;;;;;;2.40;0.93;;;8.60;99.90;;;;;;5032582;28;20515;-61
2020/12/13 11:40:11;;;;;;;4.83;1.87;;;8.70;99.90;;;;;;5028066;28;20653;-63
2020/12/13 11:42:36;;;;;;;3.33;1.80;;;8.70;99.90;;;;;;5024024;28;20268;-61
2020/12/13 11:45:03;;;;;;;7.53;3.00;;;8.70;99.90;;;;;;5020618;28;20217;-63
2020/12/13 11:47:29;;;;;;;2.90;1.77;;;8.70;99.90;;;;;;5030738;28;20915;-61
2020/12/13 11:49:55;;;;;;;3.67;2.00;;;8.70;99.90;;;;;;5021784;28;20528;-61
2020/12/13 11:52:20;;;;;;;1.70;0.20;;;8.70;99.90;;;;;;5045267;28;20185;-61
2020/12/13 11:54:46;;;;;;;4.80;2.50;;;8.80;99.90;;;;;;5045913;28;20222;-63
2020/12/13 11:57:11;;;;;;;1.97;0.50;;;8.70;99.90;;;;;;5046983;28;20285;-62
2020/12/13 11:59:37;;;;;;;3.40;2.13;;;8.80;99.90;;;;;;5040866;28;20190;-60
2020/12/13 12:02:03;;;;;;;1.77;0.20;;;8.80;99.90;;;;;;5036396;28;20595;-62
2020/12/13 12:04:28;;;;;;;3.33;1.43;;;8.90;99.90;;;;;;5030981;28;20193;-62
2020/12/13 12:06:55;;;;;;;5.70;2.60;;;8.90;99.90;;;;;;5027459;28;20211;-62
2020/12/13 12:09:21;;;;;;;1.70;0.20;;;8.90;99.90;;;;;;5022477;28;20178;-62
2020/12/13 12:11:46;;;;;;;1.70;0.20;;;8.90;99.90;;;;;;5028135;28;20587;-62
2020/12/13 12:14:12;;;;;;;1.80;0.30;;;9.00;99.90;;;;;;5030118;28;21210;-62
2020/12/13 12:16:42;;;;;;;1.70;0.20;;;9.00;99.90;;;;;;5025090;28;20212;-61
2020/12/13 12:19:09;;;;;;;3.40;2.20;;;9.00;99.90;;;;;;5029058;28;20824;-62
2020/12/13 12:21:35;;;;;;;1.90;0.50;;;9.00;99.90;;;;;;5028376;28;20432;-62
2020/12/13 12:24:02;;;;;;;4.53;1.73;;;9.00;99.90;;;;;;5032125;28;20432;-61
2020/12/13 12:26:34;;;;;;;2.60;1.03;;;9.00;99.90;;;;;;5032148;28;20464;-66
2020/12/13 12:29:01;;;;;;;1.70;0.20;;;9.00;99.90;;;;;;5022277;28;20517;-61
2020/12/13 12:31:26;;;;;;;2.97;1.20;;;9.00;99.90;;;;;;5019756;28;20425;-61
2020/12/13 12:33:52;;;;;;;3.20;1.73;;;9.00;99.90;;;;;;5026857;28;20425;-61
2020/12/13 12:36:23;;;;;;;1.70;0.20;;;9.10;99.90;;;;;;5030720;28;20275;-62
2020/12/13 12:38:50;;;;;;;1.70;0.20;;;9.00;99.90;;;;;;5030236;28;20548;-61
2020/12/13 12:41:19;;;;;;;4.00;1.13;;;9.20;99.90;;;;;;5026499;28;20437;-62
2020/12/13 12:43:46;;;;;;;2.63;0.80;;;9.20;99.90;;;;;;5026995;28;20770;-60
2020/12/13 12:46:11;;;;;;;1.70;0.20;;;9.10;99.90;;;;;;5029355;28;20436;-64
2020/12/13 12:48:37;;;;;;;1.70;0.20;;;9.10;99.90;;;;;;5030492;28;20457;-63
2020/12/13 12:51:05;;;;;;;1.70;0.20;;;9.20;99.90;;;;;;5028480;28;20190;-67
2020/12/13 12:53:30;;;;;;;2.47;1.70;;;9.20;99.90;;;;;;5028933;28;20444;-61
2020/12/13 12:55:56;;;;;;;1.70;0.20;;;9.20;99.90;;;;;;5019594;28;20479;-62
2020/12/13 12:58:23;;;;;;;1.73;0.20;;;9.30;99.90;;;;;;5031248;28;20299;-62